createdAt,value
2023-03-27T04:12:01.246Z,0.1
2023-03-27T04:14:00.903Z,0.2
2023-03-27T04:15:01.648Z,0.3
2023-03-27T04:17:01.028Z,0.5
2023-03-27T04:18:00.867Z,0.6
2023-03-27T04:19:01.215Z,0.7
2023-03-27T04:20:01.075Z,0.9
2023-03-27T04:21:00.811Z,1.0
2023-03-27T04:22:02.049Z,1.2
2023-03-27T04:23:00.820Z,1.4
2023-03-27T04:24:00.816Z,1.6
2023-03-27T04:25:01.507Z,1.9
2023-03-27T04:26:00.917Z,2.3
2023-03-27T04:27:01.030Z,2.7
2023-03-27T04:28:00.855Z,3.2
2023-03-27T04:29:00.807Z,3.7
2023-03-27T04:30:01.625Z,4.4
2023-03-27T04:31:00.840Z,5.1
2023-03-27T04:32:01.298Z,6.2
2023-03-27T04:33:00.844Z,7.3
2023-03-27T04:34:00.813Z,8.3
2023-03-27T04:35:05.820Z,10.1
2023-03-27T04:36:05.246Z,11.8
2023-03-27T04:37:01.022Z,14.5
2023-03-27T04:38:00.814Z,17.3
2023-03-27T04:39:00.817Z,20.0
2023-03-27T04:40:06.415Z,24.3
2023-03-27T04:41:00.915Z,28.5
2023-03-27T04:42:01.180Z,35.3
2023-03-27T04:43:00.880Z,42.0
2023-03-27T04:44:00.981Z,48.7
2023-03-27T04:45:01.585Z,59.2
2023-03-27T04:46:00.825Z,69.7
2023-03-27T04:47:01.069Z,85.3
2023-03-27T04:48:00.860Z,100.9
2023-03-27T04:49:00.823Z,116.5
2023-03-27T04:50:00.964Z,139.2
2023-03-27T04:51:00.830Z,161.9
2023-03-27T04:52:01.085Z,194.3
2023-03-27T04:53:00.894Z,226.7
2023-03-27T04:54:00.825Z,259.1
2023-03-27T04:55:00.875Z,303.9
2023-03-27T04:56:00.826Z,348.6
2023-03-27T04:57:01.107Z,408.6
2023-03-27T04:58:00.843Z,468.6
2023-03-27T04:59:00.828Z,528.6
2023-03-27T05:00:01.510Z,606.7
2023-03-27T05:01:01.413Z,684.9
2023-03-27T05:02:01.685Z,784.7
2023-03-27T05:03:00.966Z,884.6
2023-03-27T05:04:00.899Z,984.5
2023-03-27T05:05:00.869Z,1108.9
2023-03-27T05:06:00.828Z,1233.4
2023-03-27T05:07:01.750Z,1383.9
2023-03-27T05:08:00.828Z,1534.5
2023-03-27T05:09:00.825Z,1685.0
2023-03-27T05:10:00.882Z,1863.6
2023-03-27T05:11:00.838Z,2042.2
2023-03-27T05:12:01.066Z,2249.4
2023-03-27T05:13:00.832Z,2456.6
2023-03-27T05:14:00.876Z,2663.8
2023-03-27T05:15:01.497Z,2898.3
2023-03-27T05:16:00.871Z,3132.9
2023-03-27T05:17:01.074Z,3397.0
2023-03-27T05:18:00.907Z,3661.1
2023-03-27T05:19:00.830Z,3925.3
2023-03-27T05:20:01.271Z,4221.1
2023-03-27T05:21:00.833Z,4517.0
2023-03-27T05:22:01.173Z,4838.2
2023-03-27T05:23:00.830Z,5159.4
2023-03-27T05:24:00.836Z,5480.6
2023-03-27T05:25:00.845Z,5819.5
2023-03-27T05:26:01.159Z,6158.5
2023-03-27T05:27:01.042Z,6511.3
2023-03-27T05:28:00.963Z,6864.2
2023-03-27T05:29:00.833Z,7217.1
2023-03-27T05:30:06.460Z,7583.9
2023-03-27T05:31:00.966Z,7950.8
2023-03-27T05:32:01.560Z,8327.5
2023-03-27T05:33:00.933Z,8704.1
2023-03-27T05:34:00.840Z,9080.8
2023-03-27T05:35:00.850Z,9462.3
2023-03-27T05:36:00.861Z,9843.7
2023-03-27T05:37:02.006Z,10233.5
2023-03-27T05:38:00.848Z,10623.2
2023-03-27T05:39:00.841Z,11012.9
2023-03-27T05:40:01.721Z,11412.7
2023-03-27T05:41:00.872Z,11812.5
2023-03-27T05:42:01.305Z,12222.7
2023-03-27T05:43:00.841Z,12632.9
2023-03-27T05:44:00.851Z,13043.1
2023-03-27T05:45:01.489Z,13458.9
2023-03-27T05:46:00.922Z,13874.7
2023-03-27T05:47:01.058Z,14288.1
2023-03-27T05:48:00.896Z,14701.4
2023-03-27T05:49:00.891Z,15114.7
2023-03-27T05:50:00.854Z,15524.4
2023-03-27T05:51:00.917Z,15934.1
2023-03-27T05:52:01.047Z,16343.5
2023-03-27T05:53:00.846Z,16753.0
2023-03-27T05:54:00.849Z,17162.5
2023-03-27T05:55:01.478Z,17607.4
2023-03-27T05:56:02.288Z,18052.3
2023-03-27T05:57:01.362Z,18622.0
2023-03-27T05:58:00.850Z,19191.7
2023-03-27T05:59:00.845Z,19761.3
2023-03-27T06:00:01.734Z,20509.0
2023-03-27T06:01:00.996Z,21256.7
2023-03-27T06:02:02.081Z,22216.6
2023-03-27T06:03:00.927Z,23176.5
2023-03-27T06:04:00.985Z,24136.5
2023-03-27T06:05:01.500Z,25310.2
2023-03-27T06:06:01.171Z,26483.9
2023-03-27T06:07:01.094Z,27810.1
2023-03-27T06:08:01.109Z,29136.3
2023-03-27T06:09:00.843Z,30462.5
2023-03-27T06:10:01.410Z,31341.3
2023-03-27T06:11:00.882Z,32220.1
2023-03-27T06:12:01.111Z,32729.1
2023-03-27T06:13:00.862Z,33238.0
2023-03-27T06:14:00.853Z,33746.9
2023-03-27T06:15:01.672Z,33894.1
2023-03-27T06:16:01.005Z,34041.3
2023-03-27T06:17:01.061Z,33911.6
2023-03-27T06:18:00.877Z,33781.9
2023-03-27T06:19:00.855Z,33652.1
2023-03-27T06:20:01.613Z,33280.8
2023-03-27T06:21:01.137Z,32909.5
2023-03-27T06:22:15.880Z,32316.7
2023-03-27T06:23:01.402Z,31723.9
2023-03-27T06:24:01.160Z,31131.1
2023-03-27T06:25:01.440Z,30977.5
2023-03-27T06:50:06.951Z,40134.0
2023-03-27T06:52:00.301Z,40702.7
2023-03-27T06:53:00.278Z,40987.0
2023-03-27T06:54:00.276Z,41157.6
2023-03-27T06:55:00.493Z,42962.3
2023-03-27T06:56:00.558Z,44251.4
2023-03-27T06:57:00.331Z,45679.1
2023-03-27T06:58:00.292Z,46789.6
2023-03-27T06:59:00.288Z,47677.9
2023-03-27T07:00:04.346Z,48707.9
2023-03-27T07:01:00.305Z,49566.3
2023-03-27T07:02:00.329Z,50456.2
2023-03-27T07:03:00.324Z,51219.1
2023-03-27T07:04:00.300Z,51880.2
2023-03-27T07:05:06.271Z,53458.0
2023-03-27T07:06:00.553Z,55035.8
2023-03-27T07:07:00.288Z,56615.5
2023-03-27T07:08:05.404Z,58195.1
2023-03-27T07:09:00.303Z,59774.8
2023-03-27T07:10:01.792Z,60678.1
2023-03-27T07:11:11.144Z,61581.3
2023-03-27T07:12:00.282Z,62238.8
2023-03-27T07:13:00.285Z,62896.3
2023-03-27T07:14:00.277Z,63553.7
2023-03-27T07:15:01.409Z,63988.9
2023-03-27T07:16:00.341Z,64424.0
2023-03-27T07:17:00.277Z,64717.3
2023-03-27T07:18:00.318Z,65010.5
2023-03-27T07:19:02.085Z,65303.8
2023-03-27T07:20:01.130Z,65419.4
2023-03-27T07:21:00.686Z,65535.0
2023-03-27T07:30:03.266Z,65535.0
2023-03-27T07:45:05.378Z,65535.0
2023-03-27T08:00:05.016Z,65535.0
2023-03-27T08:15:01.363Z,65535.0
2023-03-27T08:30:01.450Z,65535.0
2023-03-27T08:45:01.413Z,65535.0
2023-03-27T09:00:04.560Z,65535.0
2023-03-27T09:15:01.809Z,65535.0
2023-03-27T09:27:07.002Z,64855.9
2023-03-27T09:28:00.361Z,64176.7
2023-03-27T09:29:00.352Z,63497.6
2023-03-27T09:30:07.129Z,62602.0
2023-03-27T09:31:00.359Z,61706.4
2023-03-27T09:42:00.360Z,62385.5
2023-03-27T09:43:05.383Z,63064.7
2023-03-27T09:44:00.354Z,63743.8
2023-03-27T09:45:02.445Z,64639.4
2023-03-27T09:46:00.351Z,65535.0
2023-03-27T10:00:04.797Z,65535.0
2023-03-27T10:15:02.644Z,65535.0
2023-03-27T10:30:02.904Z,65535.0
2023-03-27T10:45:03.356Z,65535.0
2023-03-27T11:00:04.780Z,65535.0
2023-03-27T11:15:01.798Z,65535.0
2023-03-27T11:30:01.184Z,65535.0
2023-03-27T11:45:01.319Z,65535.0
2023-03-27T11:57:00.460Z,65338.5
2023-03-27T11:58:05.391Z,65141.9
2023-03-27T11:59:00.507Z,64945.4
2023-03-27T12:00:02.034Z,62030.5
2023-03-27T12:01:00.398Z,59115.5
2023-03-27T12:02:00.426Z,57203.5
2023-03-27T12:03:00.478Z,55291.4
2023-03-27T12:04:00.545Z,53379.3
2023-03-27T12:12:00.424Z,53575.9
2023-03-27T12:13:00.440Z,53772.4
2023-03-27T12:14:01.987Z,53968.9
2023-03-27T12:15:01.272Z,56883.9
2023-03-27T12:16:00.473Z,59798.8
2023-03-27T12:17:00.399Z,61710.9
2023-03-27T12:18:00.433Z,63622.9
2023-03-27T12:19:04.167Z,65535.0
2023-03-27T12:27:00.443Z,65306.3
2023-03-27T12:28:00.401Z,65077.5
2023-03-27T12:29:00.451Z,64848.8
2023-03-27T12:30:02.325Z,64848.8
2023-03-27T12:42:00.405Z,65077.5
2023-03-27T12:43:00.403Z,65306.3
2023-03-27T12:44:00.393Z,65535.0
2023-03-27T12:45:01.262Z,65535.0
2023-03-27T13:00:05.261Z,65535.0
2023-03-27T13:30:02.962Z,65535.0
2023-03-27T13:45:16.591Z,65535.0
2023-03-27T14:10:01.227Z,65535.0
2023-03-27T14:15:02.096Z,65535.0
2023-03-27T14:40:01.856Z,65535.0
2023-03-27T14:45:01.643Z,65535.0
2023-03-27T14:50:02.590Z,64507.4
2023-03-27T14:51:00.791Z,63651.0
2023-03-27T14:52:00.862Z,62926.4
2023-03-27T14:53:00.793Z,61604.4
2023-03-27T14:54:00.794Z,60458.6
2023-03-27T14:55:01.029Z,59142.7
2023-03-27T14:56:00.906Z,57826.7
2023-03-27T14:57:00.818Z,56510.8
2023-03-27T14:58:00.792Z,55503.5
2023-03-27T14:59:00.791Z,54496.1
2023-03-27T15:00:18.758Z,54110.3
2023-03-27T15:01:00.926Z,53724.5
2023-03-27T15:02:00.793Z,53338.7
2023-03-27T15:20:02.043Z,65535.0
2023-03-27T15:30:02.179Z,65535.0
2023-03-27T15:40:01.697Z,65054.1
2023-03-27T15:41:00.585Z,64573.1
2023-03-27T15:42:01.030Z,64092.2
2023-03-27T15:43:00.538Z,63025.9
2023-03-27T15:44:00.542Z,61959.5
2023-03-27T15:45:01.646Z,60157.7
2023-03-27T15:46:00.764Z,58355.8
2023-03-27T15:47:00.775Z,56553.9
2023-03-27T15:48:00.559Z,54329.5
2023-03-27T15:49:00.545Z,52105.1
2023-03-27T15:50:16.427Z,49598.8
2023-03-27T15:51:00.540Z,47092.5
2023-03-27T15:52:00.570Z,44586.1
2023-03-27T15:53:00.541Z,41669.0
2023-03-27T16:37:00.464Z,14247.0
2023-03-27T16:38:00.267Z,15068.3
2023-03-27T17:03:01.179Z,27730.0
2023-03-27T17:04:01.019Z,26850.4
2023-03-27T17:05:15.999Z,25422.0
2023-03-27T17:06:01.253Z,24401.7
2023-03-27T17:07:00.984Z,23636.5
2023-03-27T17:08:00.972Z,22613.6
2023-03-27T17:09:01.011Z,21795.2
2023-03-27T17:11:16.072Z,20385.2
2023-03-27T17:12:01.316Z,19842.8
2023-03-27T17:13:00.985Z,19311.0
2023-03-27T17:14:01.013Z,18850.1
